createdAt,value
2019-03-05T00:04:38.079Z,98292.59
2019-03-05T00:09:56.773Z,98286.30
2019-03-05T00:15:18.129Z,98290.86
2019-03-05T00:20:36.679Z,98287.28
2019-03-05T00:25:55.275Z,98295.81
2019-03-05T00:31:20.044Z,98287.22
2019-03-05T00:36:41.742Z,98294.70
2019-03-05T00:42:06.315Z,98298.25
2019-03-05T00:47:43.427Z,98308.78
2019-03-05T00:53:16.923Z,98308.59
2019-03-05T00:58:47.275Z,98318.43
2019-03-05T01:04:24.067Z,98312.94
2019-03-05T01:09:42.621Z,98322.53
2019-03-05T01:15:01.235Z,98323.16
2019-03-05T01:20:19.802Z,98329.31
2019-03-05T01:25:38.547Z,98335.89
2019-03-05T01:31:11.041Z,98332.56
2019-03-05T01:36:31.304Z,98333.14
2019-03-05T01:41:50.027Z,98339.72
2019-03-05T01:47:09.051Z,98332.91
2019-03-05T01:52:27.677Z,98335.66
2019-03-05T01:57:46.294Z,98339.34
2019-03-05T02:03:05.993Z,98337.24
2019-03-05T02:08:25.181Z,98328.56
2019-03-05T02:13:43.800Z,98347.44
2019-03-05T02:19:34.272Z,98346.77
2019-03-05T02:25:01.854Z,98354.55
2019-03-05T02:30:38.853Z,98359.75
2019-03-05T02:36:09.344Z,98365.53
2019-03-05T02:41:30.862Z,98363.04
2019-03-05T02:47:10.348Z,98361.64
2019-03-05T02:52:34.478Z,98363.45
2019-03-05T02:57:51.838Z,98360.62
2019-03-05T03:03:17.803Z,98353.55
2019-03-05T03:08:36.353Z,98367.00
2019-03-05T03:13:54.946Z,98368.02
2019-03-05T03:19:13.482Z,98369.83
2019-03-05T03:24:32.391Z,98379.44
2019-03-05T03:29:50.939Z,98372.05
2019-03-05T03:35:11.472Z,98360.84
2019-03-05T03:40:30.111Z,98369.53
2019-03-05T03:45:48.728Z,98372.58
2019-03-05T03:51:07.422Z,98376.33
2019-03-05T03:56:26.137Z,98378.04
2019-03-05T04:01:44.761Z,98386.72
2019-03-05T04:07:03.372Z,98388.13
2019-03-05T04:12:21.978Z,98392.58
2019-03-05T04:17:40.725Z,98405.03
2019-03-05T04:22:59.340Z,98394.52
2019-03-05T04:28:18.178Z,98404.31
2019-03-05T04:33:36.779Z,98396.02
2019-03-05T04:38:55.312Z,98394.70
2019-03-05T04:44:15.560Z,98400.97
2019-03-05T04:49:38.279Z,98400.16
2019-03-05T04:54:56.913Z,98394.00
2019-03-05T05:00:15.794Z,98398.77
2019-03-05T05:05:34.460Z,98390.16
2019-03-05T05:10:53.039Z,98393.91
2019-03-05T05:16:11.747Z,98388.03
2019-03-05T05:21:30.391Z,98390.97
2019-03-05T05:26:48.968Z,98386.52
2019-03-05T05:32:07.428Z,98386.92
2019-03-05T05:37:25.969Z,98396.02
2019-03-05T05:42:45.221Z,98406.75
2019-03-05T05:48:05.275Z,98404.61
2019-03-05T05:53:23.900Z,98404.70
2019-03-05T05:58:42.513Z,98402.97
2019-03-05T06:04:01.173Z,98408.05
2019-03-05T06:09:19.747Z,98397.83
2019-03-05T06:14:38.334Z,98400.66
2019-03-05T06:19:56.873Z,98407.55
2019-03-05T06:25:15.888Z,98410.56
2019-03-05T06:30:37.524Z,98414.02
2019-03-05T06:35:56.087Z,98424.13
2019-03-05T06:41:14.613Z,98426.16
2019-03-05T06:46:33.223Z,98424.04
2019-03-05T06:51:51.804Z,98425.86
2019-03-05T06:57:10.370Z,98425.54
2019-03-05T07:02:29.095Z,98436.55
2019-03-05T07:07:47.658Z,98430.97
2019-03-05T07:13:07.943Z,98439.44
2019-03-05T07:18:29.782Z,98446.50
2019-03-05T07:24:14.278Z,98438.02
2019-03-05T07:29:33.163Z,98459.73
2019-03-05T07:34:52.591Z,98463.67
2019-03-05T07:40:12.543Z,98472.31
2019-03-05T07:45:31.164Z,98468.64
2019-03-05T07:50:49.702Z,98475.17
2019-03-05T07:56:08.357Z,98476.83
2019-03-05T08:01:27.013Z,98481.68
2019-03-05T08:06:46.025Z,98496.83
2019-03-05T08:12:28.690Z,98496.75
2019-03-05T08:17:47.400Z,98501.44
2019-03-05T08:23:06.052Z,98524.00
2019-03-05T08:28:24.913Z,98517.65
2019-03-05T08:33:43.548Z,98528.95
2019-03-05T08:39:07.028Z,98542.08
2019-03-05T08:44:25.568Z,98542.33
2019-03-05T08:49:44.198Z,98539.95
2019-03-05T08:55:02.659Z,98543.36
2019-03-05T09:01:00.298Z,98549.24
2019-03-05T09:06:19.113Z,98544.45
2019-03-05T09:11:37.893Z,98561.33
2019-03-05T09:16:56.428Z,98565.62
2019-03-05T09:22:14.976Z,98577.66
2019-03-05T09:27:33.584Z,98582.79
2019-03-05T09:32:52.218Z,98575.86
2019-03-05T09:38:10.802Z,98585.38
2019-03-05T09:43:29.401Z,98584.58
2019-03-05T09:48:47.956Z,98591.41
2019-03-05T09:54:06.574Z,98609.96
2019-03-05T09:59:25.043Z,98606.73
2019-03-05T10:04:43.591Z,98611.50
2019-03-05T10:10:02.137Z,98607.34
2019-03-05T10:15:22.649Z,98614.52
2019-03-05T10:20:41.440Z,98615.73
2019-03-05T10:26:00.047Z,98614.43
2019-03-05T10:31:18.957Z,98628.50
2019-03-05T10:36:37.700Z,98636.30
2019-03-05T10:41:56.386Z,98638.42
2019-03-05T10:47:14.984Z,98630.73
2019-03-05T10:52:33.608Z,98644.19
2019-03-05T10:57:52.325Z,98646.01
2019-03-05T11:03:11.774Z,98650.98
2019-03-05T11:08:30.484Z,98652.70
2019-03-05T11:13:49.099Z,98642.00
2019-03-05T11:19:08.209Z,98659.47
2019-03-05T11:24:26.770Z,98654.59
2019-03-05T11:29:45.387Z,98657.23
2019-03-05T11:35:05.398Z,98654.97
2019-03-05T11:40:24.506Z,98662.69
2019-03-05T11:45:44.489Z,98673.56
2019-03-05T11:51:03.189Z,98673.70
2019-03-05T11:56:21.722Z,98684.39
2019-03-05T12:01:40.391Z,98683.23
2019-03-05T12:06:58.996Z,98687.46
2019-03-05T12:12:17.537Z,98686.91
2019-03-05T12:17:36.143Z,98697.22
2019-03-05T12:22:54.742Z,98701.52
2019-03-05T12:28:13.357Z,98713.13
2019-03-05T12:33:31.949Z,98702.77
2019-03-05T12:38:50.585Z,98705.84
2019-03-05T12:44:09.231Z,98716.22
2019-03-05T12:49:27.761Z,98705.81
2019-03-05T12:54:46.429Z,98716.17
2019-03-05T13:00:09.548Z,98714.39
2019-03-05T13:05:28.210Z,98715.85
2019-03-05T13:10:46.892Z,98713.87
2019-03-05T13:16:05.544Z,98731.72
2019-03-05T13:21:24.066Z,98729.70
2019-03-05T13:26:45.064Z,98728.16
2019-03-05T13:32:02.969Z,98728.71
2019-03-05T13:37:24.873Z,98734.05
2019-03-05T13:42:41.948Z,98739.16
2019-03-05T13:48:14.759Z,98746.50
2019-03-05T13:54:00.053Z,98752.63
2019-03-05T13:59:14.801Z,98763.00
2019-03-05T14:04:45.251Z,98780.77
2019-03-05T14:10:06.017Z,98780.69
2019-03-05T14:15:24.702Z,98779.00
2019-03-05T14:20:43.561Z,98790.63
2019-03-05T14:26:02.184Z,98795.03
2019-03-05T14:31:20.846Z,98795.11
2019-03-05T14:36:39.454Z,98799.58
2019-03-05T14:41:59.966Z,98813.30
2019-03-05T14:47:18.897Z,98820.15
2019-03-05T14:52:37.453Z,98818.31
2019-03-05T14:57:56.100Z,98822.41
2019-03-05T15:03:14.697Z,98818.06
2019-03-05T15:08:33.284Z,98824.59
2019-03-05T15:13:51.836Z,98827.81
2019-03-05T15:19:20.863Z,98837.45
2019-03-05T15:24:30.882Z,98843.59
2019-03-05T15:29:49.384Z,98845.26
2019-03-05T15:35:11.159Z,98847.17
2019-03-05T15:40:29.698Z,98847.25
2019-03-05T15:45:48.407Z,98847.16
2019-03-05T15:51:07.029Z,98852.77
2019-03-05T15:56:25.671Z,98845.47
2019-03-05T16:01:44.294Z,98847.48
2019-03-05T16:07:02.804Z,98848.11
2019-03-05T16:12:23.005Z,98854.24
2019-03-05T16:17:41.695Z,98865.43
2019-03-05T16:23:00.314Z,98868.19
2019-03-05T16:28:19.004Z,98876.12
2019-03-05T16:33:39.190Z,98877.13
2019-03-05T16:39:11.411Z,98875.66
2019-03-05T16:44:33.102Z,98886.15
2019-03-05T16:49:56.085Z,98882.64
2019-03-05T16:55:31.623Z,98886.41
2019-03-05T17:01:03.970Z,98897.59
2019-03-05T17:06:42.153Z,98900.69
2019-03-05T17:12:01.010Z,98901.44
2019-03-05T17:17:20.239Z,98917.53
2019-03-05T17:22:38.841Z,98921.64
2019-03-05T17:27:57.453Z,98925.39
2019-03-05T17:33:17.968Z,98942.41
2019-03-05T17:38:42.768Z,98943.11
2019-03-05T17:44:03.523Z,98943.11
2019-03-05T17:49:22.065Z,98954.64
2019-03-05T17:54:40.598Z,98957.78
2019-03-05T17:59:59.211Z,98963.44
2019-03-05T18:05:19.045Z,98962.43
2019-03-05T18:10:37.758Z,98981.27
2019-03-05T18:15:59.048Z,98984.52
2019-03-05T18:21:17.682Z,98987.57
2019-03-05T18:26:36.298Z,98987.57
2019-03-05T18:31:54.934Z,98989.13
2019-03-05T18:37:15.154Z,98994.27
2019-03-05T18:42:33.938Z,99002.48
2019-03-05T18:47:53.383Z,99008.98
2019-03-05T18:53:11.918Z,99014.56
2019-03-05T18:58:30.488Z,99012.54
2019-03-05T19:03:49.130Z,99019.13
2019-03-05T19:09:08.204Z,99023.50
2019-03-05T19:14:26.747Z,99018.98
2019-03-05T19:19:45.662Z,99024.42
2019-03-05T19:25:05.916Z,99033.77
2019-03-05T19:30:29.503Z,99040.52
2019-03-05T19:35:48.191Z,99045.57
2019-03-05T19:41:07.135Z,99037.41
2019-03-05T19:46:26.788Z,99048.34
2019-03-05T19:51:45.333Z,99053.42
2019-03-05T19:57:03.953Z,99060.77
2019-03-05T20:02:22.605Z,99053.76
2019-03-05T20:07:41.214Z,99059.95
2019-03-05T20:13:00.136Z,99058.56
2019-03-05T20:18:19.088Z,99055.04
2019-03-05T20:23:37.834Z,99057.23
2019-03-05T20:28:56.496Z,99060.57
2019-03-05T20:34:15.355Z,99056.61
2019-03-05T20:39:34.376Z,99058.34
2019-03-05T20:44:53.181Z,99055.20
2019-03-05T20:50:15.450Z,99055.96
2019-03-05T20:55:34.102Z,99056.45
2019-03-05T21:00:52.958Z,99053.70
2019-03-05T21:06:11.993Z,99072.78
2019-03-05T21:11:30.773Z,99062.73
2019-03-05T21:16:49.323Z,99056.78
2019-03-05T21:22:08.016Z,99064.98
2019-03-05T21:27:26.695Z,99063.96
2019-03-05T21:32:47.583Z,99051.41
2019-03-05T21:38:06.352Z,99044.92
2019-03-05T21:43:26.518Z,99056.00
2019-03-05T21:48:45.145Z,99053.29
2019-03-05T21:54:03.864Z,99062.00
2019-03-05T21:59:23.323Z,99065.32
2019-03-05T22:04:42.073Z,99068.03
2019-03-05T22:10:00.929Z,99075.28
2019-03-05T22:15:27.474Z,99073.08
2019-03-05T22:20:46.219Z,99067.83
2019-03-05T22:26:04.865Z,99065.66
2019-03-05T22:31:26.918Z,99064.34
2019-03-05T22:36:45.816Z,99050.05
2019-03-05T22:42:04.452Z,99052.25
2019-03-05T22:47:23.172Z,99052.58
2019-03-05T22:52:42.132Z,99049.03
2019-03-05T22:58:01.207Z,99053.17
2019-03-05T23:03:24.969Z,99060.72
2019-03-05T23:08:43.913Z,99055.39
2019-03-05T23:14:02.645Z,99047.53
2019-03-05T23:19:21.266Z,99049.84
2019-03-05T23:24:40.074Z,99057.31
2019-03-05T23:29:58.989Z,99039.03
2019-03-05T23:35:17.591Z,99030.03
2019-03-05T23:40:36.221Z,99036.48
2019-03-05T23:45:55.025Z,99025.73
2019-03-05T23:51:13.631Z,99024.48
2019-03-05T23:56:32.177Z,99014.33
